Bloomingdale, New York
Current Conditions -  °F | °C
As of 3:51 AM on Friday 24 Oct 2014 (Local Time) from KSLK Reporting Station
Overcast Overcast  
Wind Chill: 36°   Ceiling: 900
Heat Index: 40°   Visibility: 10mi
Dew Point: 38°   Wind: 6mph
Humidity: 93%   Direction: 360°N
Pressure: 29.84"   Gusts: NA
Location:  44.41°N, 74.09°W
Report Text: KSLK 240751Z AUTO 36005KT 10SM OVC009 04/03 A2984 RMK AO2 CIG 007V012 SLP114 T00440033
Loading
Personal Weather Stations






























Interactive Weather Map
Tropical Storm Tracking
New forecast layout! Learn more

10-Day Weather Forecast

Advertisements
Track Severe Weather on mobile